ěÝzenÝ letovÚho provozu ╚eskÚ republiky
Letiste: LKPJ Aktualizace: 19.06.2024 02:30:42  UTC
 METAR LKPJ 19.06. 02:30 ...
METAR LKPJ 190230Z AUTO VRB02KT CAVOK 16/15 Q1013=